sensor_id;sensor_type;location;lat;lon;timestamp;P1;durP1;ratioP1;P2;durP2;ratioP2
53513;SDS011;39768;54.148;12.174;2023-05-16T00:00:34;7.53;;;5.22;;
53513;SDS011;39768;54.148;12.174;2023-05-16T00:04:36;4.40;;;2.85;;
53513;SDS011;39768;54.148;12.174;2023-05-16T00:08:38;7.18;;;3.05;;
53513;SDS011;39768;54.148;12.174;2023-05-16T00:12:39;5.70;;;3.50;;
53513;SDS011;39768;54.148;12.174;2023-05-16T00:16:41;12.73;;;3.90;;
53513;SDS011;39768;54.148;12.174;2023-05-16T00:20:43;6.53;;;4.22;;
53513;SDS011;39768;54.148;12.174;2023-05-16T00:24:45;4.95;;;3.20;;
53513;SDS011;39768;54.148;12.174;2023-05-16T00:28:46;3.78;;;2.33;;
53513;SDS011;39768;54.148;12.174;2023-05-16T00:32:48;9.07;;;4.32;;
53513;SDS011;39768;54.148;12.174;2023-05-16T00:36:50;4.38;;;2.33;;
53513;SDS011;39768;54.148;12.174;2023-05-16T00:40:51;3.78;;;2.78;;
53513;SDS011;39768;54.148;12.174;2023-05-16T00:44:53;5.28;;;2.42;;
53513;SDS011;39768;54.148;12.174;2023-05-16T00:48:54;4.72;;;4.28;;
53513;SDS011;39768;54.148;12.174;2023-05-16T00:52:56;2.75;;;2.28;;
53513;SDS011;39768;54.148;12.174;2023-05-16T00:56:57;4.95;;;3.63;;
53513;SDS011;39768;54.148;12.174;2023-05-16T01:00:59;6.13;;;4.13;;
53513;SDS011;39768;54.148;12.174;2023-05-16T01:05:04;3.72;;;2.15;;
53513;SDS011;39768;54.148;12.174;2023-05-16T01:09:05;7.22;;;4.15;;
53513;SDS011;39768;54.148;12.174;2023-05-16T01:13:11;7.00;;;2.97;;
53513;SDS011;39768;54.148;12.174;2023-05-16T01:21:47;10.00;;;5.05;;
53513;SDS011;39768;54.148;12.174;2023-05-16T01:29:58;10.30;;;3.25;;
53513;SDS011;39768;54.148;12.174;2023-05-16T01:33:59;7.80;;;3.88;;
53513;SDS011;39768;54.148;12.174;2023-05-16T01:38:08;8.43;;;3.20;;
53513;SDS011;39768;54.148;12.174;2023-05-16T01:42:13;6.17;;;3.47;;
53513;SDS011;39768;54.148;12.174;2023-05-16T01:46:20;5.65;;;3.22;;
53513;SDS011;39768;54.148;12.174;2023-05-16T01:50:27;6.13;;;3.95;;
53513;SDS011;39768;54.148;12.174;2023-05-16T01:54:32;5.88;;;3.20;;
53513;SDS011;39768;54.148;12.174;2023-05-16T01:58:38;5.13;;;2.92;;
53513;SDS011;39768;54.148;12.174;2023-05-16T02:02:41;4.10;;;3.13;;
53513;SDS011;39768;54.148;12.174;2023-05-16T02:06:42;6.13;;;3.38;;
53513;SDS011;39768;54.148;12.174;2023-05-16T02:10:44;3.75;;;3.28;;
53513;SDS011;39768;54.148;12.174;2023-05-16T02:14:45;7.68;;;2.58;;
53513;SDS011;39768;54.148;12.174;2023-05-16T02:18:47;5.20;;;2.95;;
53513;SDS011;39768;54.148;12.174;2023-05-16T02:22:48;5.82;;;2.65;;
53513;SDS011;39768;54.148;12.174;2023-05-16T02:26:50;6.55;;;3.70;;
53513;SDS011;39768;54.148;12.174;2023-05-16T02:30:58;5.10;;;2.80;;
53513;SDS011;39768;54.148;12.174;2023-05-16T02:35:01;5.10;;;3.55;;
53513;SDS011;39768;54.148;12.174;2023-05-16T02:39:02;5.88;;;2.80;;
53513;SDS011;39768;54.148;12.174;2023-05-16T02:43:08;6.68;;;3.35;;
53513;SDS011;39768;54.148;12.174;2023-05-16T02:47:10;5.53;;;3.25;;
53513;SDS011;39768;54.148;12.174;2023-05-16T02:51:11;2.67;;;2.35;;
53513;SDS011;39768;54.148;12.174;2023-05-16T02:55:13;5.43;;;2.28;;
53513;SDS011;39768;54.148;12.174;2023-05-16T02:59:17;7.38;;;3.28;;
53513;SDS011;39768;54.148;12.174;2023-05-16T03:03:19;3.50;;;2.53;;
53513;SDS011;39768;54.148;12.174;2023-05-16T03:07:21;3.15;;;1.92;;
53513;SDS011;39768;54.148;12.174;2023-05-16T03:11:23;2.67;;;2.25;;
53513;SDS011;39768;54.148;12.174;2023-05-16T03:15:26;4.57;;;3.55;;
53513;SDS011;39768;54.148;12.174;2023-05-16T03:19:28;4.57;;;2.10;;
53513;SDS011;39768;54.148;12.174;2023-05-16T03:23:29;5.68;;;2.25;;
53513;SDS011;39768;54.148;12.174;2023-05-16T03:27:31;5.70;;;1.88;;
53513;SDS011;39768;54.148;12.174;2023-05-16T03:31:32;2.97;;;1.95;;
53513;SDS011;39768;54.148;12.174;2023-05-16T03:35:34;3.95;;;2.30;;
53513;SDS011;39768;54.148;12.174;2023-05-16T03:39:36;3.33;;;1.60;;
53513;SDS011;39768;54.148;12.174;2023-05-16T03:43:38;5.82;;;2.58;;
53513;SDS011;39768;54.148;12.174;2023-05-16T03:47:40;1.88;;;1.63;;
53513;SDS011;39768;54.148;12.174;2023-05-16T03:51:41;3.42;;;1.80;;
53513;SDS011;39768;54.148;12.174;2023-05-16T03:55:43;4.90;;;2.33;;
53513;SDS011;39768;54.148;12.174;2023-05-16T03:59:45;3.22;;;1.88;;
53513;SDS011;39768;54.148;12.174;2023-05-16T04:03:47;4.85;;;2.33;;
53513;SDS011;39768;54.148;12.174;2023-05-16T04:07:48;5.47;;;1.90;;
53513;SDS011;39768;54.148;12.174;2023-05-16T04:11:50;2.95;;;2.28;;
53513;SDS011;39768;54.148;12.174;2023-05-16T04:15:51;2.92;;;1.92;;
53513;SDS011;39768;54.148;12.174;2023-05-16T04:19:53;6.90;;;1.73;;
53513;SDS011;39768;54.148;12.174;2023-05-16T04:23:54;4.50;;;1.95;;
53513;SDS011;39768;54.148;12.174;2023-05-16T04:27:57;3.67;;;2.90;;
53513;SDS011;39768;54.148;12.174;2023-05-16T04:31:59;4.10;;;1.60;;
53513;SDS011;39768;54.148;12.174;2023-05-16T04:36:01;1.27;;;1.17;;
53513;SDS011;39768;54.148;12.174;2023-05-16T04:40:04;2.60;;;2.20;;
53513;SDS011;39768;54.148;12.174;2023-05-16T04:44:07;3.65;;;1.08;;
53513;SDS011;39768;54.148;12.174;2023-05-16T04:48:11;2.17;;;1.27;;
53513;SDS011;39768;54.148;12.174;2023-05-16T04:52:12;2.63;;;1.67;;
53513;SDS011;39768;54.148;12.174;2023-05-16T04:56:14;2.20;;;1.30;;
53513;SDS011;39768;54.148;12.174;2023-05-16T05:00:16;10.35;;;2.00;;
53513;SDS011;39768;54.148;12.174;2023-05-16T05:04:18;5.28;;;1.23;;
53513;SDS011;39768;54.148;12.174;2023-05-16T05:08:20;2.05;;;1.52;;
53513;SDS011;39768;54.148;12.174;2023-05-16T05:12:22;3.08;;;1.25;;
53513;SDS011;39768;54.148;12.174;2023-05-16T05:16:23;3.92;;;1.33;;
53513;SDS011;39768;54.148;12.174;2023-05-16T05:20:25;4.90;;;1.15;;
53513;SDS011;39768;54.148;12.174;2023-05-16T05:24:27;2.00;;;0.70;;
53513;SDS011;39768;54.148;12.174;2023-05-16T05:28:28;5.57;;;1.40;;
53513;SDS011;39768;54.148;12.174;2023-05-16T05:32:30;3.13;;;1.52;;
53513;SDS011;39768;54.148;12.174;2023-05-16T05:36:32;3.85;;;0.82;;
53513;SDS011;39768;54.148;12.174;2023-05-16T05:40:33;4.30;;;0.82;;
53513;SDS011;39768;54.148;12.174;2023-05-16T05:44:35;2.25;;;0.80;;
53513;SDS011;39768;54.148;12.174;2023-05-16T05:48:37;2.15;;;1.00;;
53513;SDS011;39768;54.148;12.174;2023-05-16T05:52:39;8.00;;;0.85;;
53513;SDS011;39768;54.148;12.174;2023-05-16T05:56:41;3.55;;;1.00;;
53513;SDS011;39768;54.148;12.174;2023-05-16T06:00:42;1.63;;;0.90;;
53513;SDS011;39768;54.148;12.174;2023-05-16T06:04:43;4.85;;;1.00;;
53513;SDS011;39768;54.148;12.174;2023-05-16T06:08:45;1.27;;;0.95;;
53513;SDS011;39768;54.148;12.174;2023-05-16T06:12:46;11.52;;;1.30;;
53513;SDS011;39768;54.148;12.174;2023-05-16T06:16:48;4.93;;;0.80;;
53513;SDS011;39768;54.148;12.174;2023-05-16T06:20:51;2.22;;;0.85;;
53513;SDS011;39768;54.148;12.174;2023-05-16T06:24:53;1.88;;;1.17;;
53513;SDS011;39768;54.148;12.174;2023-05-16T06:28:54;0.88;;;0.50;;
53513;SDS011;39768;54.148;12.174;2023-05-16T06:32:56;3.20;;;0.80;;
53513;SDS011;39768;54.148;12.174;2023-05-16T06:36:57;5.45;;;0.88;;
53513;SDS011;39768;54.148;12.174;2023-05-16T06:40:59;0.70;;;0.45;;
53513;SDS011;39768;54.148;12.174;2023-05-16T06:45:01;1.70;;;0.90;;
53513;SDS011;39768;54.148;12.174;2023-05-16T06:49:03;0.93;;;0.77;;
53513;SDS011;39768;54.148;12.174;2023-05-16T06:53:04;2.13;;;0.70;;
53513;SDS011;39768;54.148;12.174;2023-05-16T06:57:07;0.80;;;0.47;;
53513;SDS011;39768;54.148;12.174;2023-05-16T07:01:09;0.38;;;0.20;;
53513;SDS011;39768;54.148;12.174;2023-05-16T07:05:11;3.17;;;0.60;;
53513;SDS011;39768;54.148;12.174;2023-05-16T07:09:12;9.05;;;0.90;;
53513;SDS011;39768;54.148;12.174;2023-05-16T07:13:14;0.77;;;0.77;;
53513;SDS011;39768;54.148;12.174;2023-05-16T07:17:15;2.85;;;0.60;;
53513;SDS011;39768;54.148;12.174;2023-05-16T07:21:17;3.20;;;0.77;;
53513;SDS011;39768;54.148;12.174;2023-05-16T07:25:18;5.68;;;1.30;;
53513;SDS011;39768;54.148;12.174;2023-05-16T07:29:20;10.30;;;1.55;;
53513;SDS011;39768;54.148;12.174;2023-05-16T07:33:21;1.88;;;0.90;;
53513;SDS011;39768;54.148;12.174;2023-05-16T07:37:23;1.00;;;0.70;;
53513;SDS011;39768;54.148;12.174;2023-05-16T07:41:24;5.65;;;0.75;;
53513;SDS011;39768;54.148;12.174;2023-05-16T07:45:26;2.30;;;0.80;;
53513;SDS011;39768;54.148;12.174;2023-05-16T07:49:28;1.60;;;0.70;;
53513;SDS011;39768;54.148;12.174;2023-05-16T07:53:29;12.65;;;0.90;;
53513;SDS011;39768;54.148;12.174;2023-05-16T07:57:31;1.40;;;1.30;;
53513;SDS011;39768;54.148;12.174;2023-05-16T08:01:33;4.28;;;0.65;;
53513;SDS011;39768;54.148;12.174;2023-05-16T08:05:34;1.85;;;0.73;;
53513;SDS011;39768;54.148;12.174;2023-05-16T08:09:36;2.50;;;0.68;;
53513;SDS011;39768;54.148;12.174;2023-05-16T08:13:37;0.50;;;0.35;;
53513;SDS011;39768;54.148;12.174;2023-05-16T08:17:39;2.90;;;0.82;;
53513;SDS011;39768;54.148;12.174;2023-05-16T08:21:40;5.25;;;0.93;;
53513;SDS011;39768;54.148;12.174;2023-05-16T08:25:42;1.55;;;0.65;;
53513;SDS011;39768;54.148;12.174;2023-05-16T08:29:43;1.20;;;0.82;;
53513;SDS011;39768;54.148;12.174;2023-05-16T08:33:45;2.88;;;0.73;;
53513;SDS011;39768;54.148;12.174;2023-05-16T08:37:47;6.40;;;1.02;;
53513;SDS011;39768;54.148;12.174;2023-05-16T08:41:48;7.72;;;0.88;;
53513;SDS011;39768;54.148;12.174;2023-05-16T08:45:50;0.85;;;0.70;;
53513;SDS011;39768;54.148;12.174;2023-05-16T08:49:52;2.35;;;0.60;;
53513;SDS011;39768;54.148;12.174;2023-05-16T08:54:08;3.13;;;0.77;;
53513;SDS011;39768;54.148;12.174;2023-05-16T08:58:13;3.78;;;0.80;;
53513;SDS011;39768;54.148;12.174;2023-05-16T09:02:15;4.70;;;0.73;;
53513;SDS011;39768;54.148;12.174;2023-05-16T09:06:17;6.22;;;0.75;;
53513;SDS011;39768;54.148;12.174;2023-05-16T09:10:19;4.47;;;0.50;;
53513;SDS011;39768;54.148;12.174;2023-05-16T09:14:21;1.13;;;0.63;;
53513;SDS011;39768;54.148;12.174;2023-05-16T09:18:23;3.22;;;0.73;;
53513;SDS011;39768;54.148;12.174;2023-05-16T09:22:24;6.20;;;1.20;;
53513;SDS011;39768;54.148;12.174;2023-05-16T09:26:26;4.20;;;0.57;;
53513;SDS011;39768;54.148;12.174;2023-05-16T09:30:29;3.08;;;1.10;;
53513;SDS011;39768;54.148;12.174;2023-05-16T09:34:45;0.77;;;0.50;;
53513;SDS011;39768;54.148;12.174;2023-05-16T09:38:52;0.50;;;0.50;;
53513;SDS011;39768;54.148;12.174;2023-05-16T09:43:03;0.55;;;0.43;;
53513;SDS011;39768;54.148;12.174;2023-05-16T09:47:06;2.28;;;0.60;;
53513;SDS011;39768;54.148;12.174;2023-05-16T09:51:08;1.40;;;0.75;;
53513;SDS011;39768;54.148;12.174;2023-05-16T09:55:11;0.68;;;0.63;;
53513;SDS011;39768;54.148;12.174;2023-05-16T09:59:13;4.28;;;0.95;;
53513;SDS011;39768;54.148;12.174;2023-05-16T10:03:14;0.80;;;0.80;;
53513;SDS011;39768;54.148;12.174;2023-05-16T10:07:16;1.00;;;0.43;;
53513;SDS011;39768;54.148;12.174;2023-05-16T10:11:20;2.30;;;0.82;;
53513;SDS011;39768;54.148;12.174;2023-05-16T10:15:22;0.88;;;0.88;;
53513;SDS011;39768;54.148;12.174;2023-05-16T10:19:24;0.75;;;0.50;;
53513;SDS011;39768;54.148;12.174;2023-05-16T10:23:27;4.32;;;0.50;;
53513;SDS011;39768;54.148;12.174;2023-05-16T10:27:29;2.28;;;0.73;;
53513;SDS011;39768;54.148;12.174;2023-05-16T10:31:31;1.02;;;0.95;;
53513;SDS011;39768;54.148;12.174;2023-05-16T10:35:33;2.28;;;0.45;;
53513;SDS011;39768;54.148;12.174;2023-05-16T10:39:35;4.72;;;0.70;;
53513;SDS011;39768;54.148;12.174;2023-05-16T10:43:38;1.00;;;0.60;;
53513;SDS011;39768;54.148;12.174;2023-05-16T10:47:40;2.08;;;0.45;;
53513;SDS011;39768;54.148;12.174;2023-05-16T10:56:10;1.75;;;0.95;;
53513;SDS011;39768;54.148;12.174;2023-05-16T11:00:20;1.65;;;0.40;;
53513;SDS011;39768;54.148;12.174;2023-05-16T11:04:22;0.75;;;0.75;;
53513;SDS011;39768;54.148;12.174;2023-05-16T11:08:24;1.00;;;0.63;;
53513;SDS011;39768;54.148;12.174;2023-05-16T11:12:34;2.63;;;0.93;;
53513;SDS011;39768;54.148;12.174;2023-05-16T11:16:37;0.45;;;0.40;;
53513;SDS011;39768;54.148;12.174;2023-05-16T11:20:39;1.40;;;0.73;;
53513;SDS011;39768;54.148;12.174;2023-05-16T11:25:00;0.82;;;0.50;;
53513;SDS011;39768;54.148;12.174;2023-05-16T11:29:03;1.15;;;0.30;;
53513;SDS011;39768;54.148;12.174;2023-05-16T11:33:05;2.90;;;0.50;;
53513;SDS011;39768;54.148;12.174;2023-05-16T11:37:09;3.20;;;0.70;;
53513;SDS011;39768;54.148;12.174;2023-05-16T11:41:11;0.73;;;0.73;;
53513;SDS011;39768;54.148;12.174;2023-05-16T11:49:19;6.55;;;0.60;;
53513;SDS011;39768;54.148;12.174;2023-05-16T11:53:20;3.22;;;0.40;;
53513;SDS011;39768;54.148;12.174;2023-05-16T11:57:22;2.25;;;0.43;;
53513;SDS011;39768;54.148;12.174;2023-05-16T12:01:24;3.85;;;0.80;;
53513;SDS011;39768;54.148;12.174;2023-05-16T12:05:26;2.55;;;0.40;;
53513;SDS011;39768;54.148;12.174;2023-05-16T12:09:29;0.22;;;0.22;;
53513;SDS011;39768;54.148;12.174;2023-05-16T12:13:31;4.50;;;0.85;;
53513;SDS011;39768;54.148;12.174;2023-05-16T12:17:36;0.38;;;0.30;;
53513;SDS011;39768;54.148;12.174;2023-05-16T12:21:39;1.55;;;0.57;;
53513;SDS011;39768;54.148;12.174;2023-05-16T12:25:44;0.77;;;0.73;;
53513;SDS011;39768;54.148;12.174;2023-05-16T12:29:48;5.38;;;0.60;;
53513;SDS011;39768;54.148;12.174;2023-05-16T12:33:52;3.90;;;0.63;;
53513;SDS011;39768;54.148;12.174;2023-05-16T12:37:55;4.20;;;0.50;;
53513;SDS011;39768;54.148;12.174;2023-05-16T12:41:56;3.63;;;0.50;;
53513;SDS011;39768;54.148;12.174;2023-05-16T12:46:08;3.00;;;0.68;;
53513;SDS011;39768;54.148;12.174;2023-05-16T12:50:12;3.65;;;0.82;;
53513;SDS011;39768;54.148;12.174;2023-05-16T12:54:15;2.72;;;0.80;;
53513;SDS011;39768;54.148;12.174;2023-05-16T12:58:17;1.42;;;0.55;;
53513;SDS011;39768;54.148;12.174;2023-05-16T13:02:18;0.68;;;0.68;;
53513;SDS011;39768;54.148;12.174;2023-05-16T13:06:36;1.02;;;0.60;;
53513;SDS011;39768;54.148;12.174;2023-05-16T13:10:57;3.20;;;0.40;;
53513;SDS011;39768;54.148;12.174;2023-05-16T13:14:59;1.15;;;0.50;;
53513;SDS011;39768;54.148;12.174;2023-05-16T13:19:01;1.10;;;0.80;;
53513;SDS011;39768;54.148;12.174;2023-05-16T13:23:03;4.45;;;0.75;;
53513;SDS011;39768;54.148;12.174;2023-05-16T13:27:05;1.85;;;0.43;;
53513;SDS011;39768;54.148;12.174;2023-05-16T13:31:07;5.63;;;0.85;;
53513;SDS011;39768;54.148;12.174;2023-05-16T13:35:10;2.85;;;0.70;;
53513;SDS011;39768;54.148;12.174;2023-05-16T13:39:11;0.55;;;0.40;;
53513;SDS011;39768;54.148;12.174;2023-05-16T13:43:13;0.82;;;0.65;;
53513;SDS011;39768;54.148;12.174;2023-05-16T13:47:16;0.57;;;0.57;;
53513;SDS011;39768;54.148;12.174;2023-05-16T14:03:12;0.75;;;0.75;;
53513;SDS011;39768;54.148;12.174;2023-05-16T14:07:14;4.63;;;0.70;;
53513;SDS011;39768;54.148;12.174;2023-05-16T14:11:16;3.60;;;0.85;;
53513;SDS011;39768;54.148;12.174;2023-05-16T14:15:20;3.90;;;0.75;;
53513;SDS011;39768;54.148;12.174;2023-05-16T14:19:21;1.80;;;0.70;;
53513;SDS011;39768;54.148;12.174;2023-05-16T14:23:23;5.43;;;0.80;;
53513;SDS011;39768;54.148;12.174;2023-05-16T14:27:25;3.60;;;0.65;;
53513;SDS011;39768;54.148;12.174;2023-05-16T14:31:26;7.20;;;1.10;;
53513;SDS011;39768;54.148;12.174;2023-05-16T14:35:28;4.95;;;0.93;;
53513;SDS011;39768;54.148;12.174;2023-05-16T14:39:30;0.70;;;0.47;;
53513;SDS011;39768;54.148;12.174;2023-05-16T14:43:31;6.65;;;0.73;;
53513;SDS011;39768;54.148;12.174;2023-05-16T14:47:33;4.40;;;0.63;;
53513;SDS011;39768;54.148;12.174;2023-05-16T14:51:34;0.57;;;0.30;;
53513;SDS011;39768;54.148;12.174;2023-05-16T14:55:36;0.30;;;0.30;;
53513;SDS011;39768;54.148;12.174;2023-05-16T14:59:38;1.50;;;0.40;;
53513;SDS011;39768;54.148;12.174;2023-05-16T15:03:40;4.20;;;0.85;;
53513;SDS011;39768;54.148;12.174;2023-05-16T15:07:54;0.63;;;0.63;;
53513;SDS011;39768;54.148;12.174;2023-05-16T15:11:57;2.40;;;0.60;;
53513;SDS011;39768;54.148;12.174;2023-05-16T15:15:59;1.98;;;0.63;;
53513;SDS011;39768;54.148;12.174;2023-05-16T15:20:01;5.05;;;0.45;;
53513;SDS011;39768;54.148;12.174;2023-05-16T15:24:02;1.20;;;0.20;;
53513;SDS011;39768;54.148;12.174;2023-05-16T15:28:04;1.45;;;0.60;;
53513;SDS011;39768;54.148;12.174;2023-05-16T15:32:06;1.08;;;0.60;;
53513;SDS011;39768;54.148;12.174;2023-05-16T15:36:08;0.93;;;0.35;;
53513;SDS011;39768;54.148;12.174;2023-05-16T15:40:10;8.02;;;0.80;;
53513;SDS011;39768;54.148;12.174;2023-05-16T15:44:12;0.50;;;0.50;;
53513;SDS011;39768;54.148;12.174;2023-05-16T15:48:13;4.53;;;0.73;;
53513;SDS011;39768;54.148;12.174;2023-05-16T15:52:15;1.27;;;0.40;;
53513;SDS011;39768;54.148;12.174;2023-05-16T15:56:16;2.47;;;0.95;;
53513;SDS011;39768;54.148;12.174;2023-05-16T16:00:18;3.72;;;0.20;;
53513;SDS011;39768;54.148;12.174;2023-05-16T16:04:20;8.88;;;0.70;;
53513;SDS011;39768;54.148;12.174;2023-05-16T16:08:24;2.17;;;0.70;;
53513;SDS011;39768;54.148;12.174;2023-05-16T16:12:27;2.53;;;0.98;;
53513;SDS011;39768;54.148;12.174;2023-05-16T16:16:29;0.55;;;0.40;;
53513;SDS011;39768;54.148;12.174;2023-05-16T16:20:31;0.52;;;0.52;;
53513;SDS011;39768;54.148;12.174;2023-05-16T16:24:34;0.52;;;0.40;;
53513;SDS011;39768;54.148;12.174;2023-05-16T16:28:35;2.40;;;0.73;;
53513;SDS011;39768;54.148;12.174;2023-05-16T16:32:37;0.50;;;0.35;;
53513;SDS011;39768;54.148;12.174;2023-05-16T16:36:38;1.20;;;0.68;;
53513;SDS011;39768;54.148;12.174;2023-05-16T16:40:40;0.50;;;0.50;;
53513;SDS011;39768;54.148;12.174;2023-05-16T16:44:41;4.25;;;0.50;;
53513;SDS011;39768;54.148;12.174;2023-05-16T16:48:43;4.57;;;0.50;;
53513;SDS011;39768;54.148;12.174;2023-05-16T16:52:44;0.52;;;0.50;;
53513;SDS011;39768;54.148;12.174;2023-05-16T16:56:46;2.97;;;0.65;;
53513;SDS011;39768;54.148;12.174;2023-05-16T17:00:49;4.32;;;0.65;;
53513;SDS011;39768;54.148;12.174;2023-05-16T17:04:51;0.65;;;0.65;;
53513;SDS011;39768;54.148;12.174;2023-05-16T17:08:53;0.40;;;0.40;;
53513;SDS011;39768;54.148;12.174;2023-05-16T17:12:55;0.50;;;0.20;;
53513;SDS011;39768;54.148;12.174;2023-05-16T17:17:03;0.43;;;0.43;;
53513;SDS011;39768;54.148;12.174;2023-05-16T17:21:04;0.77;;;0.57;;
53513;SDS011;39768;54.148;12.174;2023-05-16T17:25:07;0.60;;;0.43;;
53513;SDS011;39768;54.148;12.174;2023-05-16T17:29:10;2.63;;;0.52;;
53513;SDS011;39768;54.148;12.174;2023-05-16T17:33:12;5.88;;;1.42;;
53513;SDS011;39768;54.148;12.174;2023-05-16T17:37:14;4.68;;;0.40;;
53513;SDS011;39768;54.148;12.174;2023-05-16T17:41:16;0.98;;;0.85;;
53513;SDS011;39768;54.148;12.174;2023-05-16T17:45:17;0.45;;;0.45;;
53513;SDS011;39768;54.148;12.174;2023-05-16T17:49:19;6.38;;;0.80;;
53513;SDS011;39768;54.148;12.174;2023-05-16T17:53:21;5.78;;;0.68;;
53513;SDS011;39768;54.148;12.174;2023-05-16T17:57:24;1.70;;;0.65;;
53513;SDS011;39768;54.148;12.174;2023-05-16T18:01:25;0.40;;;0.40;;
53513;SDS011;39768;54.148;12.174;2023-05-16T18:05:27;1.73;;;0.70;;
53513;SDS011;39768;54.148;12.174;2023-05-16T18:09:29;1.10;;;0.60;;
53513;SDS011;39768;54.148;12.174;2023-05-16T18:13:31;3.80;;;0.68;;
53513;SDS011;39768;54.148;12.174;2023-05-16T18:17:33;1.75;;;0.50;;
53513;SDS011;39768;54.148;12.174;2023-05-16T18:21:34;0.40;;;0.40;;
53513;SDS011;39768;54.148;12.174;2023-05-16T18:25:37;4.85;;;0.90;;
53513;SDS011;39768;54.148;12.174;2023-05-16T18:29:39;1.45;;;0.80;;
53513;SDS011;39768;54.148;12.174;2023-05-16T18:33:40;0.85;;;0.47;;
53513;SDS011;39768;54.148;12.174;2023-05-16T18:37:42;0.52;;;0.50;;
53513;SDS011;39768;54.148;12.174;2023-05-16T18:41:45;4.00;;;0.80;;
53513;SDS011;39768;54.148;12.174;2023-05-16T18:45:48;4.22;;;0.50;;
53513;SDS011;39768;54.148;12.174;2023-05-16T18:49:50;0.43;;;0.43;;
53513;SDS011;39768;54.148;12.174;2023-05-16T18:53:52;0.43;;;0.30;;
53513;SDS011;39768;54.148;12.174;2023-05-16T18:57:54;4.20;;;0.60;;
53513;SDS011;39768;54.148;12.174;2023-05-16T19:01:55;0.47;;;0.47;;
53513;SDS011;39768;54.148;12.174;2023-05-16T19:05:57;4.38;;;0.63;;
53513;SDS011;39768;54.148;12.174;2023-05-16T19:09:59;0.52;;;0.20;;
53513;SDS011;39768;54.148;12.174;2023-05-16T19:14:04;0.43;;;0.43;;
53513;SDS011;39768;54.148;12.174;2023-05-16T19:18:05;0.65;;;0.43;;
53513;SDS011;39768;54.148;12.174;2023-05-16T19:22:07;3.08;;;0.40;;
53513;SDS011;39768;54.148;12.174;2023-05-16T19:26:09;0.32;;;0.32;;
53513;SDS011;39768;54.148;12.174;2023-05-16T19:30:10;1.20;;;0.50;;
53513;SDS011;39768;54.148;12.174;2023-05-16T19:34:12;2.80;;;0.60;;
53513;SDS011;39768;54.148;12.174;2023-05-16T19:38:13;2.10;;;0.75;;
53513;SDS011;39768;54.148;12.174;2023-05-16T19:42:15;1.17;;;0.63;;
53513;SDS011;39768;54.148;12.174;2023-05-16T19:46:16;2.78;;;0.50;;
53513;SDS011;39768;54.148;12.174;2023-05-16T19:50:19;1.35;;;0.50;;
53513;SDS011;39768;54.148;12.174;2023-05-16T19:54:23;0.95;;;0.52;;
53513;SDS011;39768;54.148;12.174;2023-05-16T19:58:25;0.73;;;0.68;;
53513;SDS011;39768;54.148;12.174;2023-05-16T20:02:27;2.88;;;0.73;;
53513;SDS011;39768;54.148;12.174;2023-05-16T20:06:28;3.17;;;0.75;;
53513;SDS011;39768;54.148;12.174;2023-05-16T20:10:30;3.83;;;0.60;;
53513;SDS011;39768;54.148;12.174;2023-05-16T20:14:32;2.22;;;0.60;;
53513;SDS011;39768;54.148;12.174;2023-05-16T20:18:34;1.83;;;0.70;;
53513;SDS011;39768;54.148;12.174;2023-05-16T20:22:36;1.40;;;0.70;;
53513;SDS011;39768;54.148;12.174;2023-05-16T20:26:39;6.43;;;1.02;;
53513;SDS011;39768;54.148;12.174;2023-05-16T20:30:41;5.13;;;0.55;;
53513;SDS011;39768;54.148;12.174;2023-05-16T20:34:43;1.15;;;0.60;;
53513;SDS011;39768;54.148;12.174;2023-05-16T20:38:44;1.92;;;0.82;;
53513;SDS011;39768;54.148;12.174;2023-05-16T20:42:46;1.50;;;1.15;;
53513;SDS011;39768;54.148;12.174;2023-05-16T20:46:47;2.92;;;0.68;;
53513;SDS011;39768;54.148;12.174;2023-05-16T20:50:49;4.43;;;1.27;;
53513;SDS011;39768;54.148;12.174;2023-05-16T20:54:50;2.22;;;0.77;;
53513;SDS011;39768;54.148;12.174;2023-05-16T20:58:52;3.97;;;1.00;;
53513;SDS011;39768;54.148;12.174;2023-05-16T21:02:53;0.93;;;0.43;;
53513;SDS011;39768;54.148;12.174;2023-05-16T21:06:55;4.43;;;0.63;;
53513;SDS011;39768;54.148;12.174;2023-05-16T21:10:57;0.95;;;0.73;;
53513;SDS011;39768;54.148;12.174;2023-05-16T21:14:59;5.03;;;1.00;;
53513;SDS011;39768;54.148;12.174;2023-05-16T21:19:00;1.58;;;1.10;;
53513;SDS011;39768;54.148;12.174;2023-05-16T21:23:04;3.65;;;1.20;;
53513;SDS011;39768;54.148;12.174;2023-05-16T21:27:06;7.72;;;1.27;;
53513;SDS011;39768;54.148;12.174;2023-05-16T21:31:07;2.35;;;1.00;;
53513;SDS011;39768;54.148;12.174;2023-05-16T21:35:09;2.83;;;1.70;;
53513;SDS011;39768;54.148;12.174;2023-05-16T21:39:11;5.57;;;2.05;;
53513;SDS011;39768;54.148;12.174;2023-05-16T21:43:13;15.07;;;2.35;;
53513;SDS011;39768;54.148;12.174;2023-05-16T21:47:15;4.05;;;1.40;;
53513;SDS011;39768;54.148;12.174;2023-05-16T21:51:17;2.00;;;1.23;;
53513;SDS011;39768;54.148;12.174;2023-05-16T21:55:19;11.70;;;2.08;;
53513;SDS011;39768;54.148;12.174;2023-05-16T21:59:20;5.63;;;1.77;;
53513;SDS011;39768;54.148;12.174;2023-05-16T22:03:22;1.70;;;1.38;;
53513;SDS011;39768;54.148;12.174;2023-05-16T22:07:24;5.47;;;1.35;;
53513;SDS011;39768;54.148;12.174;2023-05-16T22:11:29;2.60;;;1.73;;
53513;SDS011;39768;54.148;12.174;2023-05-16T22:15:31;2.42;;;1.67;;
53513;SDS011;39768;54.148;12.174;2023-05-16T22:19:32;5.82;;;1.48;;
53513;SDS011;39768;54.148;12.174;2023-05-16T22:23:34;4.45;;;2.15;;
53513;SDS011;39768;54.148;12.174;2023-05-16T22:27:36;1.70;;;1.00;;
53513;SDS011;39768;54.148;12.174;2023-05-16T22:31:37;11.45;;;1.55;;
53513;SDS011;39768;54.148;12.174;2023-05-16T22:35:39;3.63;;;2.10;;
53513;SDS011;39768;54.148;12.174;2023-05-16T22:39:40;2.78;;;1.58;;
53513;SDS011;39768;54.148;12.174;2023-05-16T22:43:42;2.92;;;1.08;;
53513;SDS011;39768;54.148;12.174;2023-05-16T22:47:43;5.18;;;1.95;;
53513;SDS011;39768;54.148;12.174;2023-05-16T22:51:45;10.15;;;1.70;;
53513;SDS011;39768;54.148;12.174;2023-05-16T22:55:49;4.13;;;1.52;;
53513;SDS011;39768;54.148;12.174;2023-05-16T22:59:51;6.22;;;1.70;;
53513;SDS011;39768;54.148;12.174;2023-05-16T23:03:52;2.58;;;1.83;;
53513;SDS011;39768;54.148;12.174;2023-05-16T23:07:56;2.67;;;1.17;;
53513;SDS011;39768;54.148;12.174;2023-05-16T23:11:58;9.65;;;1.35;;
53513;SDS011;39768;54.148;12.174;2023-05-16T23:16:01;3.03;;;1.90;;
53513;SDS011;39768;54.148;12.174;2023-05-16T23:20:03;11.68;;;1.80;;
53513;SDS011;39768;54.148;12.174;2023-05-16T23:24:05;5.97;;;1.55;;
53513;SDS011;39768;54.148;12.174;2023-05-16T23:28:07;4.20;;;1.50;;
53513;SDS011;39768;54.148;12.174;2023-05-16T23:32:08;6.50;;;1.70;;
53513;SDS011;39768;54.148;12.174;2023-05-16T23:36:10;8.80;;;1.85;;
53513;SDS011;39768;54.148;12.174;2023-05-16T23:40:11;6.32;;;1.17;;
53513;SDS011;39768;54.148;12.174;2023-05-16T23:44:13;2.80;;;1.23;;
53513;SDS011;39768;54.148;12.174;2023-05-16T23:48:14;5.05;;;1.95;;
53513;SDS011;39768;54.148;12.174;2023-05-16T23:52:16;8.55;;;2.60;;
53513;SDS011;39768;54.148;12.174;2023-05-16T23:56:18;2.92;;;1.42;;
